• Join FlightAware (Why Join?)
  • Login
  • US Flag 
09:11PM EST


 

Airport Tracker/Info


-or-


 

Live Flight TrackerFlight Track Log ✈ SKW5162 ✈ 19-May-2013 ✈ KMCO - KIAH

Flight Track Log - Related Links

Times and Time Zones

All times are in EDT time to prevent confusion due to time zone crossing. See the SKW5162 flight status page for this flight to view local times or setup timezone preferences in your user account.

Time Position Orientation Groundspeed Altitude Reporting Facility
EDT Latitude Longitude Course Direction KTS MPH feet Rate Location/Type
04:56PM 28.4167 -81.3167 270° West 166 191 500  Level Orlando TRACON
04:57PM 28.3833 -81.3333 204° Southwest 211 243 2,000 2,160 Climbing Orlando TRACON
04:58PM 28.3167 -81.3667 204° Southwest 215 247 4,700 2,280 Climbing Orlando TRACON
04:59PM 28.4167 -81.6750 270° West  Level FlightAware Approximate
04:59PM 28.3167 -81.4333 270° West 253 291 6,600  Level Orlando TRACON
05:00PM 28.4167 -81.8000 270° West  Level FlightAware Approximate
05:00PM 28.3167 -81.5167 270° West 275 316 8,000  Level Orlando TRACON
05:01PM 28.4167 -81.9250 270° West  Level FlightAware Approximate
05:01PM 28.3333 -81.6000 283° West 286 329 10,200  Level Orlando TRACON
05:03PM 28.3478 -81.7981 275° West 367 422 13,800 1,800 Climbing Jacksonville Center
05:04PM 28.3547 -81.9114 274° West 367 422 15,500 1,740 Climbing Jacksonville Center
05:05PM 28.3597 -82.0269 273° West 367 422 17,300 1,800 Climbing Jacksonville Center
05:06PM 28.3669 -82.1400 274° West 367 422 19,100 1,620 Climbing Jacksonville Center
05:07PM 28.3717 -82.2603 273° West 367 422 20,600 1,440 Climbing Jacksonville Center
05:08PM 28.3764 -82.3783 273° West 372 428 22,000 1,140 Climbing Jacksonville Center
05:09PM 28.4289 -82.4842 299° West 368 423 22,900 900 Climbing Jacksonville Center
05:10PM 28.5167 -82.5594 323° Northwest 367 422 23,900 900 Climbing Jacksonville Center
05:11PM 28.6089 -82.6372 323° Northwest 387 445 24,800 780 Climbing Jacksonville Center
05:12PM 28.7092 -82.7244 323° Northwest 410 472 25,500 720 Climbing Jacksonville Center
05:13PM 28.8031 -82.8072 322° Northwest 425 489 26,300 720 Climbing Jacksonville Center
05:14PM 28.9011 -82.8950 322° Northwest 435 501 27,000 840 Climbing Jacksonville Center
05:15PM 29.0014 -82.9781 324° Northwest 440 506 28,000 1,020 Climbing Jacksonville Center
05:16PM 29.0972 -83.0636 322° Northwest 445 512 29,100 1,200 Climbing Jacksonville Center
05:17PM 29.1911 -83.1447 323° Northwest 440 506 30,400 1,200 Climbing Jacksonville Center
05:18PM 29.2806 -83.2258 322° Northwest 429 494 31,600 1,140 Climbing Jacksonville Center
05:19PM 29.3722 -83.3097 321° Northwest 424 488 32,700 1,080 Climbing Jacksonville Center
05:20PM 29.4639 -83.3886 323° Northwest 424 488 33,800 1,140 Climbing Jacksonville Center
05:21PM 29.5511 -83.4681 322° Northwest 413 475 35,000 900 Climbing Jacksonville Center
05:22PM 29.6386 -83.5497 321° Northwest 413 475 35,600 480 Climbing Jacksonville Center
05:23PM 29.7089 -83.6411 312° West 401 461 36,000 180 Climbing Jacksonville Center
05:24PM 29.7436 -83.7656 288° West 389 448 36,000  Level Jacksonville Center
05:25PM 29.7761 -83.8975 286° West 404 465 36,000 480 Level Jacksonville Center
05:26PM 29.8042 -84.0272 284° West 411 473 37,000 960 Climbing Jacksonville Center
05:27PM 29.8322 -84.1519 285° West 416 479 38,000 480 Climbing Jacksonville Center
05:28PM 29.8603 -84.2744 285° West 409 471 38,000 -60 Level Jacksonville Center
05:29PM 29.8903 -84.3994 286° West 409 471 37,900  Descending Jacksonville Center
05:30PM 29.9178 -84.5269 284° West 409 471 38,000  Climbing Jacksonville Center
05:31PM 29.9475 -84.6425 287° West 417 480 38,000  Level Jacksonville Center
05:32PM 29.9750 -84.7700 284° West 412 474 38,000  Level Jacksonville Center
05:33PM 30.0044 -84.8953 285° West 412 474 38,000  Level Jacksonville Center
05:34PM 30.0294 -85.0231 283° West 412 474 38,000  Level Jacksonville Center
05:35PM 30.0586 -85.1461 285° West 412 474 38,000  Level Jacksonville Center
05:36PM 30.0856 -85.2714 284° West 407 468 38,000  Level Jacksonville Center
05:37PM 30.1142 -85.4161 283° West 416 479 38,000  Level Jacksonville Center
05:38PM 30.1408 -85.5442 284° West 420 483 38,000  Level Jacksonville Center
05:39PM 30.1694 -85.6650 285° West 412 474 38,000  Level Jacksonville Center
05:40PM 30.1983 -85.7814 286° West 420 483 38,000  Level Jacksonville Center
05:41PM 30.2247 -85.9047 284° West 414 476 38,000  Level Jacksonville Center
05:42PM 30.2508 -86.0306 284° West 408 470 38,000  Level Jacksonville Center
05:43PM 30.2789 -86.1564 285° West 408 470 38,000  Level Jacksonville Center
05:44PM 30.3050 -86.2850 283° West 408 470 38,000  Level Jacksonville Center
05:45PM 30.3328 -86.4133 284° West 408 470 38,000  Level Jacksonville Center
05:46PM 30.3583 -86.5394 283° West 408 470 38,000  Level Jacksonville Center
05:47PM 30.3839 -86.6706 283° West 415 478 38,000  Level Jacksonville Center
05:48PM 30.4133 -86.7969 285° West 415 478 38,000  Level Jacksonville Center
05:49PM 30.4386 -86.9281 283° West 415 478 38,000  Level Jacksonville Center
05:50PM 30.4550 -87.0683 278° West 415 478 38,000  Level Jacksonville Center
05:51PM 30.4525 -87.2033 269° West 415 478 38,000  Level Jacksonville Center
05:53PM 30.4522 -87.4308 270° West 409 471 38,000  Level Houston Center
05:54PM 30.4486 -87.5639 268° West 413 475 38,000  Level Houston Center
05:55PM 30.4469 -87.6950 269° West 408 470 38,000  Level Houston Center
05:56PM 30.4442 -87.8525 269° West 408 470 38,000  Level Houston Center
05:57PM 30.4425 -87.9836 269° West 407 468 38,000  Level Houston Center
05:58PM 30.4403 -88.1144 269° West 406 467 38,000  Level Houston Center
05:59PM 30.4375 -88.2469 269° West 409 471 38,000  Level Houston Center
06:00PM 30.4347 -88.3778 269° West 406 467 38,000  Level Houston Center
06:01PM 30.4328 -88.5103 269° West 409 471 38,000  Level Houston Center
06:02PM 30.4289 -88.6428 268° West 411 473 38,000  Level Houston Center
06:03PM 30.4258 -88.8014 269° West 410 472 38,000  Level Houston Center
06:04PM 30.4225 -88.9333 268° West 410 472 38,000  Level Houston Center
06:05PM 30.4203 -89.0575 269° West 411 473 38,000  Level Houston Center
06:06PM 30.4167 -89.1900 268° West 413 475 38,000  Level Houston Center
06:07PM 30.3856 -89.3439 257° West 412 474 38,000  Level Houston Center
06:08PM 30.3414 -89.4664 247° West 411 473 38,000  Level Houston Center
06:09PM 30.2975 -89.5900 248° West 411 473 38,000  Level Houston Center
06:10PM 30.2486 -89.7222 247° West 423 487 38,000  Level Houston Center
06:11PM 30.2039 -89.8494 248° West 429 494 38,000  Level Houston Center
06:12PM 30.1597 -89.9756 248° West 421 484 38,000  Level Houston Center
06:13PM 30.1164 -90.1014 248° West 421 484 38,000  Level Houston Center
06:14PM 30.0697 -90.2278 247° West 426 490 38,000  Level Houston Center
06:15PM 30.0253 -90.3533 248° West 426 490 38,000  Level Houston Center
06:16PM 29.9700 -90.5058 247° West 429 494 38,000  Level Houston Center
06:17PM 29.9242 -90.6317 247° West 428 493 38,000  Level Houston Center
06:19PM 29.8900 -90.7617 253° West 425 489 38,000  Level Houston Center
06:20PM 29.8689 -90.8950 260° West 424 488 38,000  Level Houston Center
06:21PM 29.8472 -91.0275 259° West 422 486 38,000  Level Houston Center
06:22PM 29.8239 -91.1608 259° West 424 488 38,000  Level Houston Center
06:23PM 29.7956 -91.3214 259° West 426 490 38,000  Level Houston Center
06:24PM 29.7731 -91.4539 259° West 423 487 38,000  Level Houston Center
06:25PM 29.7503 -91.5878 259° West 426 490 38,000  Level Houston Center
06:26PM 29.7269 -91.7239 259° West 427 491 38,000  Level Houston Center
06:27PM 29.7039 -91.8583 259° West 428 493 38,000  Level Houston Center
06:28PM 29.6789 -91.9933 258° West 431 496 38,000  Level Houston Center
06:29PM 29.6558 -92.1292 259° West 432 497 38,000 -300 Level Houston Center
06:30PM 29.6275 -92.2914 259° West 432 497 37,500 -780 Descending Houston Center
06:31PM 29.6033 -92.4264 258° West 431 496 36,500 -1,020 Descending Houston Center
06:32PM 29.5783 -92.5625 258° West 434 499 35,500 -1,020 Descending Houston Center
06:33PM 29.5533 -92.6994 258° West 437 503 34,500 -1,020 Descending Houston Center
06:34PM 29.5283 -92.8369 258° West 440 506 33,500 -1,020 Descending Houston Center
06:35PM 29.5214 -92.9772 267° West 440 506 32,500 -1,080 Descending Houston Center
06:36PM 29.5217 -93.1458 270° West 440 506 31,300 -1,080 Descending Houston Center
06:37PM 29.5203 -93.2878 269° West 441 507 30,300 -1,020 Descending Houston Center
06:38PM 29.5197 -93.4303 270° West 444 511 29,300 -1,020 Descending Houston Center
06:39PM 29.5183 -93.5739 269° West 449 517 28,200 -1,800 Descending Houston Center
06:40PM 29.5183 -93.7183 270° West 451 519 25,700 -2,640 Descending Houston Center
06:41PM 29.5172 -93.8600 270° West 446 513 22,800 -3,120 Descending Houston Center
06:42PM 29.5219 -94.0342 272° West 413 475 18,900 -3,240 Descending Houston Center
06:43PM 29.5261 -94.1517 272° West 413 475 16,200 -2,880 Descending Houston Center
06:44PM 29.5275 -94.1922 272° West 405 466 15,400 -2,460 Descending Houston Center
06:44PM 29.5303 -94.2817 272° West 402 463 13,700 -2,160 Descending Houston Center
06:45PM 29.5331 -94.3333 274° West 391 450 13,000 -720 Descending Houston Center
06:45PM 29.5575 -94.3986 293° West 393 452 13,000 -540 Level Houston Center
06:46PM 29.5758 -94.4456 294° West 388 447 12,500 -1,020 Descending Houston Center
06:46PM 29.6036 -94.5097 296° West 386 444 12,000 -1,140 Descending Houston Center
06:47PM 29.6275 -94.5639 297° West 389 448 11,400 -1,680 Descending Houston Center
06:47PM 29.6514 -94.6211 296° West 391 450 10,300 -1,380 Descending Houston Center
06:48PM 29.6742 -94.6783 295° West 385 443 10,000 -300 Descending Houston Center
06:48PM 29.6975 -94.7289 298° West 384 442 10,000 -120 Level Houston Center
06:49PM 29.7150 -94.7742 294° West 300 345 9,900 -600 Descending Houston Center
06:50PM 29.7344 -94.8144 299° West 315 362 9,400 -1,140 Descending Houston Center
06:50PM 29.7531 -94.8633 294° West 294 338 8,800 -1,200 Descending Houston Center
06:51PM 29.7767 -94.9161 297° West 297 342 8,200 -1,020 Descending Houston Center
06:51PM 29.7906 -94.9500 295° West 295 339 7,800 -1,020 Descending Houston Center
06:52PM 29.8119 -95.0006 296° West 296 341 7,200 -1,020 Descending Houston Center
06:52PM 29.8258 -95.0347 295° West 295 339 6,800 -1,020 Descending Houston Center
06:53PM 29.8481 -95.0844 297° West 295 339 6,200 -480 Descending Houston Center
06:54PM 29.8847 -95.1694 296° West 299 344 6,000 -60 Descending Houston Center
06:55PM 29.9003 -95.2761 280° West 285 328 6,100  Climbing Houston Center
06:56PM 29.9003 -95.3650 270° West 282 325 6,100 -120 Level Houston Center
06:56PM 29.8992 -95.3944 268° West 282 325 6,000 -120 Descending Houston Center
06:57PM 29.8997 -95.4547 271° West 282 325 6,000 -420 Level Houston Center
06:57PM 29.8994 -95.4883 269° West 281 323 5,600 -1,500 Descending Houston Center
06:58PM 29.9008 -95.5433 272° West 281 323 4,500 -1,620 Descending Houston Center
06:58PM 29.8989 -95.5778 266° West 274 315 4,000 -540 Descending Houston Center
06:59PM 29.9019 -95.6297 274° West 274 315 4,000  Level Houston Center
06:59PM 29.9200 -95.6500 316° Northwest 256 295 4,000 -120 Level Houston Center
07:00PM 29.9600 -95.6358 17° North 263 303 3,900 -420 Descending Houston Center
07:01PM 29.9967 -95.5594 61° Northeast 232 267 3,300 -720 Descending Houston Center
07:02PM 29.9917 -95.4894 95° East 174 200 2,300 -840 Descending Houston Center